Terminal Aerodrome Forecast
Issued by NWS

Home | Current Version | Previous Version | Graphics & Text | Print | Product List | Glossary On
Versions: 1 2 3 4 5 6 7 8 9 10 11 12 13 14 15 16 17 18
000
FTUS43 KGRB 230520
TAFMTW
TAF
KMTW 230520Z 2306/2406 VRB03KT P6SM SCT004 OVC040
      TEMPO 2306/2307 3SM -TSRA BR BKN004CB
     FM230700 30002KT P6SM SCT006 OVC060
      TEMPO 2307/2309 4SM -SHRA BR BKN006
     FM230900 31003KT P6SM SCT050 BKN090
     FM231000 31006KT P6SM BKN090
     FM231400 29012G20KT P6SM SCT050
     FM240100 30007KT P6SM SCT080=

USA.gov is the U.S. government's official web portal to all federal, state and local government web resources and services.